sensor_id;sensor_type;location;lat;lon;timestamp;temperature;humidity
17236;DHT22;8734;59.272;17.780;2023-07-20T00:01:46;13.70;99.90
17236;DHT22;8734;59.272;17.780;2023-07-20T00:04:14;13.60;99.90
17236;DHT22;8734;59.272;17.780;2023-07-20T00:06:43;13.60;99.90
17236;DHT22;8734;59.272;17.780;2023-07-20T00:09:13;13.60;99.90
17236;DHT22;8734;59.272;17.780;2023-07-20T00:11:48;13.60;99.90
17236;DHT22;8734;59.272;17.780;2023-07-20T00:14:17;13.60;99.90
17236;DHT22;8734;59.272;17.780;2023-07-20T00:16:46;13.60;99.90
17236;DHT22;8734;59.272;17.780;2023-07-20T00:19:16;13.60;99.90
17236;DHT22;8734;59.272;17.780;2023-07-20T00:21:44;13.50;99.90
17236;DHT22;8734;59.272;17.780;2023-07-20T00:24:14;13.50;99.90
17236;DHT22;8734;59.272;17.780;2023-07-20T00:26:43;13.50;99.90
17236;DHT22;8734;59.272;17.780;2023-07-20T00:29:11;13.50;99.90
17236;DHT22;8734;59.272;17.780;2023-07-20T00:31:39;13.50;99.90
17236;DHT22;8734;59.272;17.780;2023-07-20T00:34:08;13.50;99.90
17236;DHT22;8734;59.272;17.780;2023-07-20T00:36:36;13.50;99.90
17236;DHT22;8734;59.272;17.780;2023-07-20T00:39:04;13.40;99.90
17236;DHT22;8734;59.272;17.780;2023-07-20T00:41:34;13.40;99.90
17236;DHT22;8734;59.272;17.780;2023-07-20T00:44:03;13.30;99.90
17236;DHT22;8734;59.272;17.780;2023-07-20T00:46:31;13.40;99.90
17236;DHT22;8734;59.272;17.780;2023-07-20T00:49:01;13.30;99.90
17236;DHT22;8734;59.272;17.780;2023-07-20T00:51:30;13.40;99.90
17236;DHT22;8734;59.272;17.780;2023-07-20T00:53:58;13.30;99.90
17236;DHT22;8734;59.272;17.780;2023-07-20T00:56:26;13.30;99.90
17236;DHT22;8734;59.272;17.780;2023-07-20T00:58:56;13.30;99.90
17236;DHT22;8734;59.272;17.780;2023-07-20T01:01:25;13.30;99.90
17236;DHT22;8734;59.272;17.780;2023-07-20T01:03:53;13.30;99.90
17236;DHT22;8734;59.272;17.780;2023-07-20T01:06:29;13.30;99.90
17236;DHT22;8734;59.272;17.780;2023-07-20T01:09:08;13.30;99.90
17236;DHT22;8734;59.272;17.780;2023-07-20T01:11:41;13.30;99.90
17236;DHT22;8734;59.272;17.780;2023-07-20T01:14:14;13.20;99.90
17236;DHT22;8734;59.272;17.780;2023-07-20T01:16:43;13.30;99.90
17236;DHT22;8734;59.272;17.780;2023-07-20T01:19:13;13.30;99.90
17236;DHT22;8734;59.272;17.780;2023-07-20T01:21:47;13.20;99.90
17236;DHT22;8734;59.272;17.780;2023-07-20T01:24:57;13.20;99.90
17236;DHT22;8734;59.272;17.780;2023-07-20T01:28:04;13.20;99.90
17236;DHT22;8734;59.272;17.780;2023-07-20T01:30:55;13.10;99.90
17236;DHT22;8734;59.272;17.780;2023-07-20T01:33:25;13.20;99.90
17236;DHT22;8734;59.272;17.780;2023-07-20T01:35:56;13.20;99.90
17236;DHT22;8734;59.272;17.780;2023-07-20T01:38:25;13.10;99.90
17236;DHT22;8734;59.272;17.780;2023-07-20T01:40:54;13.10;99.90
17236;DHT22;8734;59.272;17.780;2023-07-20T01:43:23;13.10;99.90
17236;DHT22;8734;59.272;17.780;2023-07-20T01:45:52;13.10;99.90
17236;DHT22;8734;59.272;17.780;2023-07-20T01:48:20;13.00;99.90
17236;DHT22;8734;59.272;17.780;2023-07-20T01:50:50;13.10;99.90
17236;DHT22;8734;59.272;17.780;2023-07-20T01:53:18;13.00;99.90
17236;DHT22;8734;59.272;17.780;2023-07-20T01:55:46;13.00;99.90
17236;DHT22;8734;59.272;17.780;2023-07-20T01:58:14;13.00;99.90
17236;DHT22;8734;59.272;17.780;2023-07-20T02:00:43;13.00;99.90
17236;DHT22;8734;59.272;17.780;2023-07-20T02:03:11;13.00;99.90
17236;DHT22;8734;59.272;17.780;2023-07-20T02:05:42;13.00;99.90
17236;DHT22;8734;59.272;17.780;2023-07-20T02:08:12;12.90;99.90
17236;DHT22;8734;59.272;17.780;2023-07-20T02:10:40;13.00;99.90
17236;DHT22;8734;59.272;17.780;2023-07-20T02:13:09;13.00;99.90
17236;DHT22;8734;59.272;17.780;2023-07-20T02:15:37;13.00;99.90
17236;DHT22;8734;59.272;17.780;2023-07-20T02:18:05;13.00;99.90
17236;DHT22;8734;59.272;17.780;2023-07-20T02:20:34;12.90;99.90
17236;DHT22;8734;59.272;17.780;2023-07-20T02:23:02;12.90;99.90
17236;DHT22;8734;59.272;17.780;2023-07-20T02:25:32;12.90;99.90
17236;DHT22;8734;59.272;17.780;2023-07-20T02:28:01;12.90;99.90
17236;DHT22;8734;59.272;17.780;2023-07-20T02:30:29;12.90;99.90
17236;DHT22;8734;59.272;17.780;2023-07-20T02:32:58;12.90;99.90
17236;DHT22;8734;59.272;17.780;2023-07-20T02:35:26;12.90;99.90
17236;DHT22;8734;59.272;17.780;2023-07-20T02:37:55;12.90;99.90
17236;DHT22;8734;59.272;17.780;2023-07-20T02:40:23;12.90;99.90
17236;DHT22;8734;59.272;17.780;2023-07-20T02:42:53;12.80;99.90
17236;DHT22;8734;59.272;17.780;2023-07-20T02:45:21;12.80;99.90
17236;DHT22;8734;59.272;17.780;2023-07-20T02:47:49;12.80;99.90
17236;DHT22;8734;59.272;17.780;2023-07-20T02:50:17;12.80;99.90
17236;DHT22;8734;59.272;17.780;2023-07-20T02:52:46;12.80;99.90
17236;DHT22;8734;59.272;17.780;2023-07-20T02:55:14;12.80;99.90
17236;DHT22;8734;59.272;17.780;2023-07-20T02:57:42;12.70;99.90
17236;DHT22;8734;59.272;17.780;2023-07-20T03:00:13;12.70;99.90
17236;DHT22;8734;59.272;17.780;2023-07-20T03:02:43;12.70;99.90
17236;DHT22;8734;59.272;17.780;2023-07-20T03:05:14;12.60;99.90
17236;DHT22;8734;59.272;17.780;2023-07-20T03:07:43;12.60;99.90
17236;DHT22;8734;59.272;17.780;2023-07-20T03:10:12;12.60;99.90
17236;DHT22;8734;59.272;17.780;2023-07-20T03:12:40;12.60;99.90
17236;DHT22;8734;59.272;17.780;2023-07-20T03:15:09;12.60;99.90
17236;DHT22;8734;59.272;17.780;2023-07-20T03:17:39;12.60;99.90
17236;DHT22;8734;59.272;17.780;2023-07-20T03:20:09;12.60;99.90
17236;DHT22;8734;59.272;17.780;2023-07-20T03:22:39;12.60;99.90
17236;DHT22;8734;59.272;17.780;2023-07-20T03:25:08;12.60;99.90
17236;DHT22;8734;59.272;17.780;2023-07-20T03:27:37;12.70;99.90
17236;DHT22;8734;59.272;17.780;2023-07-20T03:30:06;12.70;99.90
17236;DHT22;8734;59.272;17.780;2023-07-20T03:32:36;12.70;99.90
17236;DHT22;8734;59.272;17.780;2023-07-20T03:35:07;12.60;99.90
17236;DHT22;8734;59.272;17.780;2023-07-20T03:37:36;12.60;99.90
17236;DHT22;8734;59.272;17.780;2023-07-20T03:40:06;12.70;99.90
17236;DHT22;8734;59.272;17.780;2023-07-20T03:42:35;12.70;99.90
17236;DHT22;8734;59.272;17.780;2023-07-20T03:45:04;12.60;99.90
17236;DHT22;8734;59.272;17.780;2023-07-20T03:47:33;12.70;99.90
17236;DHT22;8734;59.272;17.780;2023-07-20T03:50:01;12.70;99.90
17236;DHT22;8734;59.272;17.780;2023-07-20T03:52:32;12.70;99.90
17236;DHT22;8734;59.272;17.780;2023-07-20T03:55:00;12.80;99.90
17236;DHT22;8734;59.272;17.780;2023-07-20T03:57:28;12.80;99.90
17236;DHT22;8734;59.272;17.780;2023-07-20T03:59:59;12.80;99.90
17236;DHT22;8734;59.272;17.780;2023-07-20T04:02:27;12.80;99.90
17236;DHT22;8734;59.272;17.780;2023-07-20T04:04:56;12.90;99.90
17236;DHT22;8734;59.272;17.780;2023-07-20T04:07:24;12.90;99.90
17236;DHT22;8734;59.272;17.780;2023-07-20T04:09:54;12.90;99.90
17236;DHT22;8734;59.272;17.780;2023-07-20T04:12:22;12.90;99.90
17236;DHT22;8734;59.272;17.780;2023-07-20T04:14:50;12.90;99.90
17236;DHT22;8734;59.272;17.780;2023-07-20T04:17:19;12.90;99.90
17236;DHT22;8734;59.272;17.780;2023-07-20T04:19:47;13.00;99.90
17236;DHT22;8734;59.272;17.780;2023-07-20T04:22:15;13.00;99.90
17236;DHT22;8734;59.272;17.780;2023-07-20T04:24:43;13.00;99.90
17236;DHT22;8734;59.272;17.780;2023-07-20T04:27:13;13.00;99.90
17236;DHT22;8734;59.272;17.780;2023-07-20T04:29:41;13.10;99.90
17236;DHT22;8734;59.272;17.780;2023-07-20T04:32:10;13.10;99.90
17236;DHT22;8734;59.272;17.780;2023-07-20T04:34:38;13.20;99.90
17236;DHT22;8734;59.272;17.780;2023-07-20T04:37:06;13.20;99.90
17236;DHT22;8734;59.272;17.780;2023-07-20T04:39:35;13.20;99.90
17236;DHT22;8734;59.272;17.780;2023-07-20T04:42:03;13.30;99.90
17236;DHT22;8734;59.272;17.780;2023-07-20T04:44:33;13.40;99.90
17236;DHT22;8734;59.272;17.780;2023-07-20T04:47:01;13.40;99.90
17236;DHT22;8734;59.272;17.780;2023-07-20T04:49:30;13.40;99.90
17236;DHT22;8734;59.272;17.780;2023-07-20T04:51:58;13.50;99.90
17236;DHT22;8734;59.272;17.780;2023-07-20T04:54:26;13.50;99.90
17236;DHT22;8734;59.272;17.780;2023-07-20T04:56:55;13.60;99.90
17236;DHT22;8734;59.272;17.780;2023-07-20T04:59:23;13.60;99.90
17236;DHT22;8734;59.272;17.780;2023-07-20T05:01:53;13.70;99.90
17236;DHT22;8734;59.272;17.780;2023-07-20T05:04:21;13.70;99.90
17236;DHT22;8734;59.272;17.780;2023-07-20T05:06:50;13.80;99.90
17236;DHT22;8734;59.272;17.780;2023-07-20T05:09:18;13.80;99.90
17236;DHT22;8734;59.272;17.780;2023-07-20T05:11:48;13.90;99.90
17236;DHT22;8734;59.272;17.780;2023-07-20T05:14:16;14.00;99.90
17236;DHT22;8734;59.272;17.780;2023-07-20T05:16:45;14.00;99.90
17236;DHT22;8734;59.272;17.780;2023-07-20T05:19:14;14.00;99.90
17236;DHT22;8734;59.272;17.780;2023-07-20T05:21:43;14.10;99.90
17236;DHT22;8734;59.272;17.780;2023-07-20T05:24:11;14.20;99.90
17236;DHT22;8734;59.272;17.780;2023-07-20T05:26:39;14.20;99.90
17236;DHT22;8734;59.272;17.780;2023-07-20T05:29:07;14.20;99.90
17236;DHT22;8734;59.272;17.780;2023-07-20T05:31:36;14.30;99.90
17236;DHT22;8734;59.272;17.780;2023-07-20T05:34:04;14.30;99.90
17236;DHT22;8734;59.272;17.780;2023-07-20T05:36:34;14.40;99.90
17236;DHT22;8734;59.272;17.780;2023-07-20T05:39:02;14.50;99.90
17236;DHT22;8734;59.272;17.780;2023-07-20T05:41:30;14.50;99.90
17236;DHT22;8734;59.272;17.780;2023-07-20T05:43:59;14.50;99.90
17236;DHT22;8734;59.272;17.780;2023-07-20T05:46:27;14.60;99.90
17236;DHT22;8734;59.272;17.780;2023-07-20T05:49:08;14.70;99.90
17236;DHT22;8734;59.272;17.780;2023-07-20T05:51:38;14.70;99.90
17236;DHT22;8734;59.272;17.780;2023-07-20T05:54:06;14.80;99.90
17236;DHT22;8734;59.272;17.780;2023-07-20T05:56:34;14.90;99.90
17236;DHT22;8734;59.272;17.780;2023-07-20T05:59:03;14.90;99.90
17236;DHT22;8734;59.272;17.780;2023-07-20T06:01:31;15.00;99.90
17236;DHT22;8734;59.272;17.780;2023-07-20T06:03:59;15.10;99.90
17236;DHT22;8734;59.272;17.780;2023-07-20T06:06:28;15.10;99.90
17236;DHT22;8734;59.272;17.780;2023-07-20T06:08:58;15.20;99.90
17236;DHT22;8734;59.272;17.780;2023-07-20T06:11:30;15.20;99.90
17236;DHT22;8734;59.272;17.780;2023-07-20T06:13:58;15.30;99.90
17236;DHT22;8734;59.272;17.780;2023-07-20T06:16:26;15.50;99.90
17236;DHT22;8734;59.272;17.780;2023-07-20T06:18:55;15.90;99.90
17236;DHT22;8734;59.272;17.780;2023-07-20T06:21:23;16.10;99.90
17236;DHT22;8734;59.272;17.780;2023-07-20T06:23:51;16.30;99.90
17236;DHT22;8734;59.272;17.780;2023-07-20T06:26:21;16.20;99.90
17236;DHT22;8734;59.272;17.780;2023-07-20T06:28:50;16.20;99.90
17236;DHT22;8734;59.272;17.780;2023-07-20T06:31:18;16.20;99.90
17236;DHT22;8734;59.272;17.780;2023-07-20T06:33:47;16.30;99.90
17236;DHT22;8734;59.272;17.780;2023-07-20T06:36:17;16.40;99.90
17236;DHT22;8734;59.272;17.780;2023-07-20T06:38:45;16.40;99.90
17236;DHT22;8734;59.272;17.780;2023-07-20T06:41:17;16.40;99.90
17236;DHT22;8734;59.272;17.780;2023-07-20T06:43:50;16.40;99.90
17236;DHT22;8734;59.272;17.780;2023-07-20T06:46:19;16.60;99.90
17236;DHT22;8734;59.272;17.780;2023-07-20T06:48:48;16.70;99.90
17236;DHT22;8734;59.272;17.780;2023-07-20T06:51:19;16.80;99.90
17236;DHT22;8734;59.272;17.780;2023-07-20T06:53:48;17.00;99.90
17236;DHT22;8734;59.272;17.780;2023-07-20T06:56:16;17.00;99.90
17236;DHT22;8734;59.272;17.780;2023-07-20T06:58:47;17.10;99.90
17236;DHT22;8734;59.272;17.780;2023-07-20T07:01:17;17.30;99.90
17236;DHT22;8734;59.272;17.780;2023-07-20T07:03:48;17.40;99.90
17236;DHT22;8734;59.272;17.780;2023-07-20T07:06:21;17.50;99.90
17236;DHT22;8734;59.272;17.780;2023-07-20T07:08:52;17.50;99.90
17236;DHT22;8734;59.272;17.780;2023-07-20T07:11:21;17.50;99.90
17236;DHT22;8734;59.272;17.780;2023-07-20T07:13:50;17.70;99.90
17236;DHT22;8734;59.272;17.780;2023-07-20T07:16:20;17.80;99.90
17236;DHT22;8734;59.272;17.780;2023-07-20T07:18:50;18.00;99.90
17236;DHT22;8734;59.272;17.780;2023-07-20T07:21:19;18.20;99.90
17236;DHT22;8734;59.272;17.780;2023-07-20T07:23:48;18.30;99.90
17236;DHT22;8734;59.272;17.780;2023-07-20T07:26:16;18.40;99.90
17236;DHT22;8734;59.272;17.780;2023-07-20T07:28:45;18.40;99.90
17236;DHT22;8734;59.272;17.780;2023-07-20T07:31:13;18.60;99.90
17236;DHT22;8734;59.272;17.780;2023-07-20T07:33:43;18.90;99.90
17236;DHT22;8734;59.272;17.780;2023-07-20T07:36:11;19.30;99.90
17236;DHT22;8734;59.272;17.780;2023-07-20T07:38:40;19.60;99.90
17236;DHT22;8734;59.272;17.780;2023-07-20T07:41:11;20.10;99.90
17236;DHT22;8734;59.272;17.780;2023-07-20T07:43:39;20.20;99.90
17236;DHT22;8734;59.272;17.780;2023-07-20T07:46:07;20.10;99.90
17236;DHT22;8734;59.272;17.780;2023-07-20T07:48:36;20.00;99.90
17236;DHT22;8734;59.272;17.780;2023-07-20T07:51:05;20.10;99.90
17236;DHT22;8734;59.272;17.780;2023-07-20T07:53:34;20.40;99.90
17236;DHT22;8734;59.272;17.780;2023-07-20T07:56:07;20.70;99.90
17236;DHT22;8734;59.272;17.780;2023-07-20T07:58:35;20.80;99.90
17236;DHT22;8734;59.272;17.780;2023-07-20T08:01:04;20.90;99.90
17236;DHT22;8734;59.272;17.780;2023-07-20T08:03:32;20.40;99.90
17236;DHT22;8734;59.272;17.780;2023-07-20T08:06:05;20.00;99.90
17236;DHT22;8734;59.272;17.780;2023-07-20T08:08:33;20.20;99.90
17236;DHT22;8734;59.272;17.780;2023-07-20T08:11:03;20.70;99.90
17236;DHT22;8734;59.272;17.780;2023-07-20T08:13:34;20.80;99.90
17236;DHT22;8734;59.272;17.780;2023-07-20T08:16:02;21.00;99.90
17236;DHT22;8734;59.272;17.780;2023-07-20T08:18:30;21.00;99.90
17236;DHT22;8734;59.272;17.780;2023-07-20T08:20:59;21.30;99.90
17236;DHT22;8734;59.272;17.780;2023-07-20T08:23:29;21.80;99.90
17236;DHT22;8734;59.272;17.780;2023-07-20T08:25:57;21.90;99.90
17236;DHT22;8734;59.272;17.780;2023-07-20T08:28:26;21.60;99.90
17236;DHT22;8734;59.272;17.780;2023-07-20T08:30:56;21.30;99.90
17236;DHT22;8734;59.272;17.780;2023-07-20T08:33:24;21.40;99.90
17236;DHT22;8734;59.272;17.780;2023-07-20T08:35:56;21.80;99.90
17236;DHT22;8734;59.272;17.780;2023-07-20T08:38:24;21.90;99.90
17236;DHT22;8734;59.272;17.780;2023-07-20T08:40:54;21.50;99.90
17236;DHT22;8734;59.272;17.780;2023-07-20T08:43:23;21.00;99.90
17236;DHT22;8734;59.272;17.780;2023-07-20T08:45:54;20.40;99.90
17236;DHT22;8734;59.272;17.780;2023-07-20T08:48:22;20.50;99.90
17236;DHT22;8734;59.272;17.780;2023-07-20T08:50:53;20.70;99.90
17236;DHT22;8734;59.272;17.780;2023-07-20T08:53:21;20.40;99.90
17236;DHT22;8734;59.272;17.780;2023-07-20T08:55:51;20.40;99.90
17236;DHT22;8734;59.272;17.780;2023-07-20T08:58:21;20.60;99.90
17236;DHT22;8734;59.272;17.780;2023-07-20T09:00:50;20.40;99.90
17236;DHT22;8734;59.272;17.780;2023-07-20T09:03:19;20.20;99.90
17236;DHT22;8734;59.272;17.780;2023-07-20T09:05:48;20.40;99.90
17236;DHT22;8734;59.272;17.780;2023-07-20T09:08:16;20.60;99.90
17236;DHT22;8734;59.272;17.780;2023-07-20T09:10:45;20.20;99.90
17236;DHT22;8734;59.272;17.780;2023-07-20T09:13:14;19.90;99.90
17236;DHT22;8734;59.272;17.780;2023-07-20T09:15:52;19.60;99.90
17236;DHT22;8734;59.272;17.780;2023-07-20T09:18:24;19.90;99.90
17236;DHT22;8734;59.272;17.780;2023-07-20T09:20:53;20.70;99.90
17236;DHT22;8734;59.272;17.780;2023-07-20T09:23:30;21.30;99.90
17236;DHT22;8734;59.272;17.780;2023-07-20T09:25:59;21.70;99.90
17236;DHT22;8734;59.272;17.780;2023-07-20T09:28:27;21.40;99.90
17236;DHT22;8734;59.272;17.780;2023-07-20T09:30:57;20.90;99.90
17236;DHT22;8734;59.272;17.780;2023-07-20T09:33:26;20.40;99.90
17236;DHT22;8734;59.272;17.780;2023-07-20T09:36:02;20.00;99.90
17236;DHT22;8734;59.272;17.780;2023-07-20T09:38:50;19.70;99.90
17236;DHT22;8734;59.272;17.780;2023-07-20T09:41:22;19.50;99.90
17236;DHT22;8734;59.272;17.780;2023-07-20T09:43:53;19.40;99.90
17236;DHT22;8734;59.272;17.780;2023-07-20T09:46:23;19.30;99.90
17236;DHT22;8734;59.272;17.780;2023-07-20T09:48:55;19.30;99.90
17236;DHT22;8734;59.272;17.780;2023-07-20T09:51:27;19.30;99.90
17236;DHT22;8734;59.272;17.780;2023-07-20T09:53:56;19.40;99.90
17236;DHT22;8734;59.272;17.780;2023-07-20T09:56:26;19.40;99.90
17236;DHT22;8734;59.272;17.780;2023-07-20T09:58:55;19.40;99.90
17236;DHT22;8734;59.272;17.780;2023-07-20T10:01:26;19.50;99.90
17236;DHT22;8734;59.272;17.780;2023-07-20T10:03:58;19.70;99.90
17236;DHT22;8734;59.272;17.780;2023-07-20T10:06:30;19.90;99.90
17236;DHT22;8734;59.272;17.780;2023-07-20T10:09:02;20.10;99.90
17236;DHT22;8734;59.272;17.780;2023-07-20T10:11:32;20.30;99.90
17236;DHT22;8734;59.272;17.780;2023-07-20T10:14:03;20.40;99.90
17236;DHT22;8734;59.272;17.780;2023-07-20T10:16:35;20.50;99.90
17236;DHT22;8734;59.272;17.780;2023-07-20T10:19:07;20.10;99.90
17236;DHT22;8734;59.272;17.780;2023-07-20T10:21:47;19.90;99.90
17236;DHT22;8734;59.272;17.780;2023-07-20T10:24:23;19.30;99.90
17236;DHT22;8734;59.272;17.780;2023-07-20T10:26:52;18.90;99.90
17236;DHT22;8734;59.272;17.780;2023-07-20T10:29:22;18.50;99.90
17236;DHT22;8734;59.272;17.780;2023-07-20T10:31:52;18.20;99.90
17236;DHT22;8734;59.272;17.780;2023-07-20T10:34:22;17.80;99.90
17236;DHT22;8734;59.272;17.780;2023-07-20T10:36:50;17.30;99.90
17236;DHT22;8734;59.272;17.780;2023-07-20T10:39:25;16.80;99.90
17236;DHT22;8734;59.272;17.780;2023-07-20T10:42:02;16.40;99.90
17236;DHT22;8734;59.272;17.780;2023-07-20T10:44:30;16.20;99.90
17236;DHT22;8734;59.272;17.780;2023-07-20T10:47:01;16.20;99.90
17236;DHT22;8734;59.272;17.780;2023-07-20T10:49:33;16.20;99.90
17236;DHT22;8734;59.272;17.780;2023-07-20T10:52:04;16.20;99.90
17236;DHT22;8734;59.272;17.780;2023-07-20T10:54:48;16.10;99.90
17236;DHT22;8734;59.272;17.780;2023-07-20T10:57:24;16.10;99.90
17236;DHT22;8734;59.272;17.780;2023-07-20T11:00:07;16.10;99.90
17236;DHT22;8734;59.272;17.780;2023-07-20T11:02:46;16.00;99.90
17236;DHT22;8734;59.272;17.780;2023-07-20T11:05:37;16.00;99.90
17236;DHT22;8734;59.272;17.780;2023-07-20T11:08:10;16.10;99.90
17236;DHT22;8734;59.272;17.780;2023-07-20T11:10:39;16.30;99.90
17236;DHT22;8734;59.272;17.780;2023-07-20T11:13:18;16.60;99.90
17236;DHT22;8734;59.272;17.780;2023-07-20T11:16:01;17.10;99.90
17236;DHT22;8734;59.272;17.780;2023-07-20T11:18:33;17.50;99.90
17236;DHT22;8734;59.272;17.780;2023-07-20T11:21:02;17.90;99.90
17236;DHT22;8734;59.272;17.780;2023-07-20T11:23:32;18.40;99.90
17236;DHT22;8734;59.272;17.780;2023-07-20T11:26:01;19.20;99.90
17236;DHT22;8734;59.272;17.780;2023-07-20T11:28:31;20.40;99.90
17236;DHT22;8734;59.272;17.780;2023-07-20T11:30:59;20.50;99.90
17236;DHT22;8734;59.272;17.780;2023-07-20T11:33:27;20.60;99.90
17236;DHT22;8734;59.272;17.780;2023-07-20T11:35:57;20.50;99.90
17236;DHT22;8734;59.272;17.780;2023-07-20T11:38:25;20.70;99.90
17236;DHT22;8734;59.272;17.780;2023-07-20T11:40:54;20.90;99.90
17236;DHT22;8734;59.272;17.780;2023-07-20T11:43:23;21.20;99.90
17236;DHT22;8734;59.272;17.780;2023-07-20T11:45:53;21.80;99.90
17236;DHT22;8734;59.272;17.780;2023-07-20T11:48:21;21.70;99.90
17236;DHT22;8734;59.272;17.780;2023-07-20T11:50:50;21.30;99.90
17236;DHT22;8734;59.272;17.780;2023-07-20T11:53:19;21.40;99.90
17236;DHT22;8734;59.272;17.780;2023-07-20T11:55:48;21.80;99.90
17236;DHT22;8734;59.272;17.780;2023-07-20T11:58:17;22.50;99.90
17236;DHT22;8734;59.272;17.780;2023-07-20T12:00:46;23.20;99.90
17236;DHT22;8734;59.272;17.780;2023-07-20T12:03:14;23.10;99.90
17236;DHT22;8734;59.272;17.780;2023-07-20T12:05:43;23.00;99.90
17236;DHT22;8734;59.272;17.780;2023-07-20T12:08:28;22.80;99.90
17236;DHT22;8734;59.272;17.780;2023-07-20T12:10:56;22.60;99.90
17236;DHT22;8734;59.272;17.780;2023-07-20T12:13:35;21.80;99.90
17236;DHT22;8734;59.272;17.780;2023-07-20T12:16:09;21.00;99.90
17236;DHT22;8734;59.272;17.780;2023-07-20T12:18:38;20.50;99.90
17236;DHT22;8734;59.272;17.780;2023-07-20T12:21:07;20.30;99.90
17236;DHT22;8734;59.272;17.780;2023-07-20T12:23:37;20.50;99.90
17236;DHT22;8734;59.272;17.780;2023-07-20T12:26:07;20.40;99.90
17236;DHT22;8734;59.272;17.780;2023-07-20T12:28:39;20.70;99.90
17236;DHT22;8734;59.272;17.780;2023-07-20T12:31:09;20.50;99.90
17236;DHT22;8734;59.272;17.780;2023-07-20T12:33:38;20.30;99.90
17236;DHT22;8734;59.272;17.780;2023-07-20T12:36:06;20.30;99.90
17236;DHT22;8734;59.272;17.780;2023-07-20T12:38:35;20.70;99.90
17236;DHT22;8734;59.272;17.780;2023-07-20T12:41:05;20.90;99.90
17236;DHT22;8734;59.272;17.780;2023-07-20T12:43:33;21.00;99.90
17236;DHT22;8734;59.272;17.780;2023-07-20T12:46:01;20.80;99.90
17236;DHT22;8734;59.272;17.780;2023-07-20T12:48:30;20.30;99.90
17236;DHT22;8734;59.272;17.780;2023-07-20T12:50:58;19.80;99.90
17236;DHT22;8734;59.272;17.780;2023-07-20T12:53:27;19.50;99.90
17236;DHT22;8734;59.272;17.780;2023-07-20T12:55:55;19.30;99.90
17236;DHT22;8734;59.272;17.780;2023-07-20T12:58:25;18.90;99.90
17236;DHT22;8734;59.272;17.780;2023-07-20T13:00:53;18.70;99.90
17236;DHT22;8734;59.272;17.780;2023-07-20T13:03:22;18.60;99.90
17236;DHT22;8734;59.272;17.780;2023-07-20T13:05:53;18.60;99.90
17236;DHT22;8734;59.272;17.780;2023-07-20T13:08:25;18.50;99.90
17236;DHT22;8734;59.272;17.780;2023-07-20T13:10:54;18.60;99.90
17236;DHT22;8734;59.272;17.780;2023-07-20T13:13:22;18.70;99.90
17236;DHT22;8734;59.272;17.780;2023-07-20T13:15:52;19.00;99.90
17236;DHT22;8734;59.272;17.780;2023-07-20T13:18:21;19.00;99.90
17236;DHT22;8734;59.272;17.780;2023-07-20T13:20:49;18.90;99.90
17236;DHT22;8734;59.272;17.780;2023-07-20T13:23:18;19.00;99.90
17236;DHT22;8734;59.272;17.780;2023-07-20T13:25:46;19.30;99.90
17236;DHT22;8734;59.272;17.780;2023-07-20T13:28:14;19.30;99.90
17236;DHT22;8734;59.272;17.780;2023-07-20T13:30:43;19.20;99.90
17236;DHT22;8734;59.272;17.780;2023-07-20T13:33:14;19.20;99.90
17236;DHT22;8734;59.272;17.780;2023-07-20T13:35:44;19.20;99.90
17236;DHT22;8734;59.272;17.780;2023-07-20T13:38:16;19.20;99.90
17236;DHT22;8734;59.272;17.780;2023-07-20T13:40:44;19.30;99.90
17236;DHT22;8734;59.272;17.780;2023-07-20T13:43:12;19.40;99.90
17236;DHT22;8734;59.272;17.780;2023-07-20T13:45:41;19.30;99.90
17236;DHT22;8734;59.272;17.780;2023-07-20T13:48:09;19.40;99.90
17236;DHT22;8734;59.272;17.780;2023-07-20T13:50:39;19.50;99.90
17236;DHT22;8734;59.272;17.780;2023-07-20T13:53:25;19.90;99.90
17236;DHT22;8734;59.272;17.780;2023-07-20T13:55:57;20.40;99.90
17236;DHT22;8734;59.272;17.780;2023-07-20T13:58:28;20.80;99.90
17236;DHT22;8734;59.272;17.780;2023-07-20T14:00:58;20.90;99.90
17236;DHT22;8734;59.272;17.780;2023-07-20T14:03:26;20.90;99.90
17236;DHT22;8734;59.272;17.780;2023-07-20T14:05:56;20.60;99.90
17236;DHT22;8734;59.272;17.780;2023-07-20T14:08:27;20.40;99.90
17236;DHT22;8734;59.272;17.780;2023-07-20T14:10:57;20.30;99.90
17236;DHT22;8734;59.272;17.780;2023-07-20T14:13:28;20.30;99.90
17236;DHT22;8734;59.272;17.780;2023-07-20T14:16:11;20.40;99.90
17236;DHT22;8734;59.272;17.780;2023-07-20T14:18:40;20.30;99.90
17236;DHT22;8734;59.272;17.780;2023-07-20T14:21:10;20.20;99.90
17236;DHT22;8734;59.272;17.780;2023-07-20T14:23:38;20.00;99.90
17236;DHT22;8734;59.272;17.780;2023-07-20T14:26:06;19.90;99.90
17236;DHT22;8734;59.272;17.780;2023-07-20T14:28:37;19.80;99.90
17236;DHT22;8734;59.272;17.780;2023-07-20T14:31:05;19.70;99.90
17236;DHT22;8734;59.272;17.780;2023-07-20T14:33:34;19.60;99.90
17236;DHT22;8734;59.272;17.780;2023-07-20T14:36:02;19.50;99.90
17236;DHT22;8734;59.272;17.780;2023-07-20T14:38:33;19.60;99.90
17236;DHT22;8734;59.272;17.780;2023-07-20T14:41:02;19.30;99.90
17236;DHT22;8734;59.272;17.780;2023-07-20T14:43:33;18.70;99.90
17236;DHT22;8734;59.272;17.780;2023-07-20T14:46:02;18.30;99.90
17236;DHT22;8734;59.272;17.780;2023-07-20T14:48:30;18.00;99.90
17236;DHT22;8734;59.272;17.780;2023-07-20T14:50:59;17.60;99.90
17236;DHT22;8734;59.272;17.780;2023-07-20T14:53:32;17.40;99.90
17236;DHT22;8734;59.272;17.780;2023-07-20T14:56:03;17.20;99.90
17236;DHT22;8734;59.272;17.780;2023-07-20T14:58:32;17.20;99.90
17236;DHT22;8734;59.272;17.780;2023-07-20T15:01:02;17.20;99.90
17236;DHT22;8734;59.272;17.780;2023-07-20T15:03:31;17.30;99.90
17236;DHT22;8734;59.272;17.780;2023-07-20T15:06:00;17.40;99.90
17236;DHT22;8734;59.272;17.780;2023-07-20T15:08:29;17.60;99.90
17236;DHT22;8734;59.272;17.780;2023-07-20T15:10:59;17.70;99.90
17236;DHT22;8734;59.272;17.780;2023-07-20T15:13:27;17.90;99.90
17236;DHT22;8734;59.272;17.780;2023-07-20T15:15:56;18.20;99.90
17236;DHT22;8734;59.272;17.780;2023-07-20T15:18:24;18.40;99.90
17236;DHT22;8734;59.272;17.780;2023-07-20T15:21:11;18.50;99.90
17236;DHT22;8734;59.272;17.780;2023-07-20T15:23:40;18.70;99.90
17236;DHT22;8734;59.272;17.780;2023-07-20T15:26:10;18.90;99.90
17236;DHT22;8734;59.272;17.780;2023-07-20T15:28:39;19.10;99.90
17236;DHT22;8734;59.272;17.780;2023-07-20T15:31:08;19.50;99.90
17236;DHT22;8734;59.272;17.780;2023-07-20T15:33:36;19.50;99.90
17236;DHT22;8734;59.272;17.780;2023-07-20T15:36:05;19.50;99.90
17236;DHT22;8734;59.272;17.780;2023-07-20T15:38:34;19.70;99.90
17236;DHT22;8734;59.272;17.780;2023-07-20T15:41:02;19.90;99.90
17236;DHT22;8734;59.272;17.780;2023-07-20T15:43:31;19.90;99.90
17236;DHT22;8734;59.272;17.780;2023-07-20T15:46:02;19.70;99.90
17236;DHT22;8734;59.272;17.780;2023-07-20T15:48:34;19.20;99.90